Time;durP1;ratioP1;P1;durP2;ratioP2;P2;SDS_P1;SDS_P2;PMS_P1;PMS_P2;Temp;Humidity;BMP_temperature;BMP_pressure;BME280_temperature;BME280_humidity;BME280_pressure;Samples;Min_cycle;Max_cycle;Signal;HPM_P1;HPM_P2
2024/02/14 00:02:04;;;;;;;7.70;3.90;;;;;;;7.97;97.98;99926.34;123269;1105;104242;-82
2024/02/14 00:04:36;;;;;;;5.37;3.67;;;;;;;7.95;97.76;99933.21;123147;1106;104328;-84
2024/02/14 00:07:07;;;;;;;8.00;4.30;;;;;;;7.92;97.45;99931.40;123260;1105;104497;-83
2024/02/14 00:09:38;;;;;;;6.43;4.10;;;;;;;7.91;97.93;99930.48;123347;1104;104262;-82
2024/02/14 00:12:10;;;;;;;6.70;3.80;;;;;;;7.88;97.45;99938.23;123277;1104;104287;-84
2024/02/14 00:14:42;;;;;;;7.47;4.13;;;;;;;7.87;98.33;99941.67;123228;1105;104336;-82
2024/02/14 00:17:14;;;;;;;9.27;4.10;;;;;;;7.86;98.18;99942.50;123226;1105;104341;-83
2024/02/14 00:19:45;;;;;;;8.10;4.50;;;;;;;7.81;97.79;99936.22;123231;1102;104318;-82
2024/02/14 00:22:16;;;;;;;8.13;4.53;;;;;;;7.80;98.23;99939.66;123186;1105;104363;-83
2024/02/14 00:24:47;;;;;;;8.97;4.13;;;;;;;7.78;98.43;99938.72;123160;1105;104341;-82
2024/02/14 00:27:18;;;;;;;6.30;4.10;;;;;;;7.75;98.42;99943.82;123258;1105;104264;-81
2024/02/14 00:29:49;;;;;;;6.67;4.23;;;;;;;7.71;98.59;99940.21;123190;1105;104322;-81
2024/02/14 00:32:21;;;;;;;7.53;4.43;;;;;;;7.72;98.68;99946.31;123124;1105;104441;-81
2024/02/14 00:34:52;;;;;;;7.77;4.50;;;;;;;7.71;98.20;99944.52;123153;1102;104363;-81
2024/02/14 00:37:23;;;;;;;6.67;4.23;;;;;;;7.72;98.37;99943.70;123082;1102;104826;-81
2024/02/14 00:39:55;;;;;;;7.07;4.30;;;;;;;7.70;98.87;99947.98;123222;1103;104377;-81
2024/02/14 00:42:27;;;;;;;8.73;5.00;;;;;;;7.70;99.03;99947.98;123344;1102;104274;-81
2024/02/14 00:44:58;;;;;;;8.67;4.40;;;;;;;7.68;98.58;99954.85;123092;1105;104357;-82
2024/02/14 00:47:29;;;;;;;8.93;4.70;;;;;;;7.65;98.84;99949.51;123218;1105;104473;-82
2024/02/14 00:50:01;;;;;;;7.57;4.10;;;;;;;7.63;99.08;99953.80;123143;1105;104207;-82
2024/02/14 00:52:32;;;;;;;7.27;4.07;;;;;;;7.61;99.42;99958.08;123277;1105;104213;-81
2024/02/14 00:55:03;;;;;;;6.73;4.23;;;;;;;7.60;100.00;99956.28;123237;1105;104418;-82
2024/02/14 00:57:35;;;;;;;6.33;4.23;;;;;;;7.56;99.86;99966.61;123105;1105;104629;-80
2024/02/14 01:00:08;;;;;;;7.73;4.67;;;;;;;7.53;99.82;99963.87;123099;1105;104233;-81
2024/02/14 01:02:41;;;;;;;8.00;4.42;;;;;;;7.50;99.94;99955.92;123242;1101;104348;-80
2024/02/14 01:05:15;;;;;;;7.33;4.27;;;;;;;7.49;99.65;99969.80;123097;1102;104731;-79
2024/02/14 01:07:47;;;;;;;7.00;4.30;;;;;;;7.49;100.00;99963.70;122964;1102;104294;-81
2024/02/14 01:10:19;;;;;;;7.70;4.37;;;;;;;7.47;99.58;99967.98;123112;1102;104341;-80
2024/02/14 01:12:50;;;;;;;8.70;4.40;;;;;;;7.46;100.00;99967.06;123060;1105;104262;-80
2024/02/14 01:15:22;;;;;;;8.40;4.65;;;;;;;7.45;100.00;99962.70;123089;1105;104271;-79
2024/02/14 01:17:53;;;;;;;6.90;4.37;;;;;;;7.44;100.00;99965.24;123201;1104;104376;-81
2024/02/14 01:20:25;;;;;;;7.80;4.60;;;;;;;7.45;100.00;99967.00;123067;1105;104265;-80
2024/02/14 01:22:56;;;;;;;7.10;4.10;;;;;;;7.42;100.00;99961.66;122978;1102;104408;-80
2024/02/14 01:25:28;;;;;;;7.27;4.30;;;;;;;7.41;100.00;99967.73;123110;1102;104274;-80
2024/02/14 01:28:00;;;;;;;9.67;4.50;;;;;;;7.38;100.00;99964.15;123098;1102;104264;-80
2024/02/14 01:30:31;;;;;;;7.30;4.47;;;;;;;7.40;100.00;99969.43;123190;1102;104246;-81
2024/02/14 01:33:03;;;;;;;6.77;4.23;;;;;;;7.41;100.00;99966.00;123202;1102;104843;-81
2024/02/14 01:35:34;;;;;;;5.97;3.93;;;;;;;7.41;100.00;99972.95;122978;1105;104505;-78
2024/02/14 01:38:06;;;;;;;7.10;4.30;;;;;;;7.40;100.00;99969.43;122986;1104;104370;-78
2024/02/14 01:40:38;;;;;;;7.65;4.45;;;;;;;7.42;100.00;99977.32;122821;1105;104338;-79
2024/02/14 01:43:09;;;;;;;8.10;5.07;;;;;;;7.40;100.00;99973.77;122866;1105;104370;-78
2024/02/14 01:45:41;;;;;;;8.53;4.67;;;;;;;7.40;100.00;99977.27;122822;1102;104280;-77
2024/02/14 01:48:12;;;;;;;8.70;4.50;;;;;;;7.38;100.00;99981.54;122823;1102;104348;-78
2024/02/14 01:50:43;;;;;;;7.43;4.23;;;;;;;7.35;100.00;99976.20;122720;1102;104303;-79
2024/02/14 01:53:15;;;;;;;8.17;4.87;;;;;;;7.31;100.00;99975.19;122744;1103;104284;-78
2024/02/14 01:55:46;;;;;;;8.03;4.73;;;;;;;7.29;100.00;99976.86;122752;1105;104242;-78
2024/02/14 01:58:18;;;;;;;7.53;4.80;;;;;;;7.28;100.00;99982.02;122742;1105;104386;-78
2024/02/14 02:00:49;;;;;;;8.90;5.10;;;;;;;7.28;100.00;99985.51;122704;1105;104405;-78
2024/02/14 02:03:22;;;;;;;11.73;5.23;;;;;;;7.27;100.00;99982.84;122788;1105;104301;-79
2024/02/14 02:05:54;;;;;;;8.17;4.80;;;;;;;7.26;100.00;99995.00;122735;1103;104243;-77
2024/02/14 02:08:26;;;;;;;9.20;5.03;;;;;;;7.22;100.00;99986.98;122771;1105;104284;-77
2024/02/14 02:10:57;;;;;;;8.90;4.63;;;;;;;7.22;100.00;99995.70;122761;1102;104465;-78
2024/02/14 02:13:28;;;;;;;8.35;4.70;;;;;;;7.24;100.00;99993.15;122724;1102;104405;-78
2024/02/14 02:16:01;;;;;;;7.20;4.40;;;;;;;7.27;100.00;99988.94;122726;1104;104727;-78
2024/02/14 02:18:32;;;;;;;8.63;5.00;;;;;;;7.26;100.00;99997.61;122779;1104;104376;-78
2024/02/14 02:21:06;;;;;;;10.20;5.30;;;;;;;7.26;100.00;99995.00;122750;1105;104344;-79
2024/02/14 02:23:37;;;;;;;11.40;5.80;;;;;;;7.25;100.00;100000.16;122777;1102;104335;-78
2024/02/14 02:26:09;;;;;;;9.50;4.97;;;;;;;7.23;100.00;100001.80;122693;1102;104462;-79
2024/02/14 02:28:40;;;;;;;9.55;5.05;;;;;;;7.24;100.00;100006.20;122789;1102;104261;-77
2024/02/14 02:31:11;;;;;;;9.53;5.40;;;;;;;7.23;100.00;100007.02;122730;1102;104267;-78
2024/02/14 02:33:43;;;;;;;10.73;5.67;;;;;;;7.19;100.00;99999.06;122722;1102;104274;-78
2024/02/14 02:36:16;;;;;;;11.60;6.00;;;;;;;7.19;100.00;100012.11;122712;1102;104439;-78
2024/02/14 02:38:47;;;;;;;7.80;4.90;;;;;;;7.17;100.00;100011.16;122697;1105;104450;-78
2024/02/14 02:41:19;;;;;;;11.77;6.00;;;;;;;7.16;100.00;100009.37;122775;1102;104287;-78
2024/02/14 02:43:51;;;;;;;10.80;6.20;;;;;;;7.16;100.00;100017.20;122688;1102;104364;-78
2024/02/14 02:46:22;;;;;;;8.73;5.57;;;;;;;7.11;100.00;100015.24;122799;1105;104281;-77
2024/02/14 02:48:54;;;;;;;11.53;6.27;;;;;;;7.10;100.00;100022.16;122761;1105;104368;-77
2024/02/14 02:51:27;;;;;;;12.10;5.97;;;;;;;7.09;100.00;100023.01;122775;1105;104419;-77
2024/02/14 02:53:58;;;;;;;9.17;5.43;;;;;;;7.09;100.00;100020.40;122706;1103;104258;-77
2024/02/14 02:56:37;;;;;;;12.57;6.13;;;;;;;7.06;100.00;100025.48;122740;1105;104774;-77
2024/02/14 02:59:08;;;;;;;12.30;6.27;;;;;;;7.05;100.00;100030.64;122766;1105;104306;-77
2024/02/14 03:01:40;;;;;;;11.85;6.40;;;;;;;7.02;100.00;100031.39;122979;1105;104392;-78
2024/02/14 03:04:13;;;;;;;13.40;7.23;;;;;;;7.01;100.00;100040.03;122723;1104;104427;-78
2024/02/14 03:06:45;;;;;;;13.03;7.00;;;;;;;6.96;100.00;100039.83;122980;1103;104393;-78
2024/02/14 03:09:17;;;;;;;14.03;6.80;;;;;;;6.96;100.00;100033.73;122818;1105;104288;-78
2024/02/14 03:11:50;;;;;;;13.43;6.57;;;;;;;6.94;100.00;100041.50;122754;1102;104309;-78
2024/02/14 03:14:21;;;;;;;13.23;6.80;;;;;;;6.91;100.00;100036.14;122712;1105;104479;-77
2024/02/14 03:16:52;;;;;;;14.07;7.30;;;;;;;6.90;100.00;100049.12;122795;1104;104434;-77
2024/02/14 03:19:23;;;;;;;15.20;7.30;;;;;;;6.87;100.00;100054.20;122736;1105;104368;-77
2024/02/14 03:21:55;;;;;;;15.70;7.00;;;;;;;6.84;100.00;100061.08;122686;1103;104373;-78
2024/02/14 03:24:26;;;;;;;11.53;6.40;;;;;;;6.84;100.00;100071.52;122686;1102;104235;-78
2024/02/14 03:26:57;;;;;;;14.15;6.95;;;;;;;6.83;100.00;100072.33;122914;1102;104285;-77
2024/02/14 03:29:28;;;;;;;11.83;6.83;;;;;;;6.85;100.00;100072.39;122858;1102;104402;-78
2024/02/14 03:32:03;;;;;;;11.80;6.40;;;;;;;6.86;100.00;100066.37;122888;1102;104278;-76
2024/02/14 03:34:35;;;;;;;13.17;6.27;;;;;;;6.82;100.00;100073.17;122826;1102;104254;-77
2024/02/14 03:37:09;;;;;;;12.87;6.13;;;;;;;6.83;100.00;100076.66;122743;1105;104883;-77
2024/02/14 03:39:40;;;;;;;12.90;6.37;;;;;;;6.82;100.00;100074.87;122908;1105;104242;-77
2024/02/14 03:42:12;;;;;;;13.10;6.40;;;;;;;6.81;100.00;100081.81;122692;1105;104402;-77
2024/02/14 03:44:43;;;;;;;10.57;5.77;;;;;;;6.81;100.00;100083.54;122734;1103;104351;-77
2024/02/14 03:47:14;;;;;;;9.40;5.30;;;;;;;6.81;100.00;100087.03;122766;1102;104332;-77
2024/02/14 03:49:45;;;;;;;9.03;5.33;;;;;;;6.79;100.00;100088.69;122777;1102;104258;-77
2024/02/14 03:52:17;;;;;;;9.63;5.33;;;;;;;6.76;100.00;100085.95;122694;1105;104290;-77
2024/02/14 03:54:48;;;;;;;9.90;5.67;;;;;;;6.73;100.00;100096.23;122755;1102;104347;-78
2024/02/14 03:57:19;;;;;;;9.67;4.93;;;;;;;6.74;100.00;100097.12;122840;1105;104287;-77
2024/02/14 03:59:50;;;;;;;8.50;5.15;;;;;;;6.73;100.00;100093.63;122716;1104;104287;-77
2024/02/14 04:02:23;;;;;;;8.60;4.60;;;;;;;6.70;100.00;100093.49;122776;1105;104284;-77
2024/02/14 04:04:54;;;;;;;10.43;5.23;;;;;;;6.67;100.00;100101.17;122804;1103;104302;-77
2024/02/14 04:07:26;;;;;;;7.53;4.40;;;;;;;6.64;100.00;100095.83;122755;1105;104393;-77
2024/02/14 04:09:57;;;;;;;7.33;4.30;;;;;;;6.64;100.00;100101.92;122757;1105;104360;-78
2024/02/14 04:12:28;;;;;;;7.80;4.57;;;;;;;6.61;100.00;100100.90;122738;1105;104286;-77
2024/02/14 04:14:59;;;;;;;8.37;4.97;;;;;;;6.60;100.00;100101.71;122702;1105;104300;-77
2024/02/14 04:17:30;;;;;;;7.43;4.73;;;;;;;6.54;100.00;100104.04;122737;1105;104364;-77
2024/02/14 04:20:02;;;;;;;8.10;4.77;;;;;;;6.53;100.00;100102.24;122672;1106;104505;-78
2024/02/14 04:22:33;;;;;;;7.67;4.63;;;;;;;6.50;100.00;100105.63;122753;1105;104265;-78
2024/02/14 04:25:05;;;;;;;7.03;4.13;;;;;;;6.47;100.00;100102.88;122726;1105;104332;-78
2024/02/14 04:27:36;;;;;;;8.30;4.57;;;;;;;6.43;100.00;100120.06;122764;1104;104335;-78
2024/02/14 04:30:09;;;;;;;7.23;4.50;;;;;;;6.43;100.00;100119.19;122757;1106;104284;-78
2024/02/14 04:32:40;;;;;;;7.37;4.57;;;;;;;6.40;100.00;100124.25;122770;1105;104419;-78
2024/02/14 04:35:13;;;;;;;8.33;4.77;;;;;;;6.39;100.00;100133.80;122733;1104;104370;-78
2024/02/14 04:37:47;;;;;;;7.20;4.50;;;;;;;6.36;100.00;100128.44;122926;1105;104271;-78
2024/02/14 04:40:19;;;;;;;7.80;4.60;;;;;;;6.33;100.00;100141.33;122812;1105;104294;-78
2024/02/14 04:42:50;;;;;;;8.63;4.80;;;;;;;6.29;100.00;100140.30;122762;1105;104405;-78
2024/02/14 04:45:21;;;;;;;6.73;4.23;;;;;;;6.27;100.00;100144.53;122814;1105;104393;-77
2024/02/14 04:47:53;;;;;;;8.43;4.90;;;;;;;6.24;100.00;100141.78;122843;1102;104280;-78
2024/02/14 04:50:24;;;;;;;7.23;4.47;;;;;;;6.24;100.00;100148.71;122837;1105;104331;-78
2024/02/14 04:52:55;;;;;;;9.35;4.70;;;;;;;6.23;100.00;100147.83;122788;1105;104421;-78
2024/02/14 04:55:26;;;;;;;8.13;4.33;;;;;;;6.22;100.00;100151.24;122784;1105;104337;-78
2024/02/14 04:57:58;;;;;;;6.93;4.47;;;;;;;6.23;100.00;100157.34;122775;1105;108858;-78
2024/02/14 05:00:29;;;;;;;8.67;4.73;;;;;;;6.23;100.00;100159.94;122837;1106;104255;-78
2024/02/14 05:03:01;;;;;;;9.17;4.97;;;;;;;6.21;100.00;100170.29;122754;1105;104740;-77
2024/02/14 05:05:33;;;;;;;7.57;4.47;;;;;;;6.20;100.00;100178.03;122861;1103;104287;-78
2024/02/14 05:08:05;;;;;;;8.93;4.83;;;;;;;6.19;100.00;100186.69;122983;1105;118592;-77
2024/02/14 05:10:36;;;;;;;8.30;4.93;;;;;;;6.15;100.00;100182.14;122708;1105;104348;-77
2024/02/14 05:13:08;;;;;;;7.77;4.67;;;;;;;6.13;100.00;100189.00;122779;1105;104303;-78
2024/02/14 05:15:39;;;;;;;8.10;4.77;;;;;;;6.13;100.00;100192.48;122817;1105;104233;-78
2024/02/14 05:18:10;;;;;;;8.70;5.15;;;;;;;6.14;100.00;100191.68;123015;1105;104376;-78
2024/02/14 05:20:42;;;;;;;10.03;4.37;;;;;;;6.13;100.00;100202.02;123069;1105;104341;-77
2024/02/14 05:23:13;;;;;;;7.27;4.30;;;;;;;6.11;100.00;100205.44;122843;1105;104348;-77
2024/02/14 05:25:44;;;;;;;6.13;4.40;;;;;;;6.07;100.00;100208.70;123458;1105;104280;-77
2024/02/14 05:28:17;;;;;;;6.77;4.13;;;;;;;6.08;100.00;100204.41;123008;1105;104182;-77
2024/02/14 05:30:49;;;;;;;7.13;3.90;;;;;;;6.04;100.00;100205.06;122864;1105;104201;-77
2024/02/14 05:33:22;;;;;;;6.73;4.07;;;;;;;6.05;100.00;100199.05;122745;1105;104402;-77
2024/02/14 05:35:55;;;;;;;6.80;3.93;;;;;;;6.04;100.00;100220.69;122867;1105;104306;-77
2024/02/14 05:38:26;;;;;;;6.80;4.00;;;;;;;6.00;100.00;100224.86;122692;1105;104437;-78
2024/02/14 05:40:57;;;;;;;6.20;3.80;;;;;;;6.01;100.00;100236.16;122823;1105;104661;-78
2024/02/14 05:43:29;;;;;;;6.05;3.90;;;;;;;6.00;100.00;100237.89;122969;1105;104328;-78
2024/02/14 05:46:03;;;;;;;5.57;3.60;;;;;;;5.97;100.00;100248.16;122971;1103;104284;-78
2024/02/14 05:48:35;;;;;;;5.27;3.53;;;;;;;5.95;100.00;100244.52;122863;1105;104305;-78
2024/02/14 05:51:06;;;;;;;5.93;3.70;;;;;;;5.94;100.00;100254.05;122908;1105;104320;-78
2024/02/14 05:53:37;;;;;;;7.20;3.90;;;;;;;5.95;100.00;100257.55;122989;1102;104249;-78
2024/02/14 05:56:09;;;;;;;5.27;3.40;;;;;;;5.92;100.00;100255.70;123014;1103;104236;-78
2024/02/14 05:58:54;;;;;;;5.55;3.70;;;;;;;5.93;100.00;100262.67;122935;1102;105723;-78
2024/02/14 06:01:26;;;;;;;5.23;3.60;;;;;;;5.94;100.00;100268.80;123011;1105;104354;-78
2024/02/14 06:03:57;;;;;;;6.30;4.10;;;;;;;5.97;100.00;100276.80;123331;1102;104194;-79
2024/02/14 06:06:28;;;;;;;6.53;3.50;;;;;;;5.94;100.00;100272.28;123268;1102;104284;-79
2024/02/14 06:08:59;;;;;;;4.60;3.50;;;;;;;5.93;100.00;100278.30;123300;1102;104431;-79
2024/02/14 06:11:30;;;;;;;4.97;3.10;;;;;;;5.94;100.00;100287.03;123978;1102;104383;-77
2024/02/14 06:14:03;;;;;;;4.47;3.30;;;;;;;5.97;100.00;100279.41;123924;1105;104258;-78
2024/02/14 06:16:34;;;;;;;5.90;3.13;;;;;;;5.96;100.00;100290.59;123892;1102;104692;-78
2024/02/14 06:19:06;;;;;;;5.57;3.20;;;;;;;5.96;100.00;100294.92;123572;1105;104344;-78
2024/02/14 06:21:43;;;;;;;4.57;3.23;;;;;;;5.96;100.00;100289.72;123663;1102;104334;-78
2024/02/14 06:24:15;;;;;;;4.27;3.00;;;;;;;5.91;100.00;100290.36;123894;1102;104185;-78
2024/02/14 06:26:46;;;;;;;3.73;2.70;;;;;;;5.93;100.00;100295.65;123878;1102;104098;-78
2024/02/14 06:29:18;;;;;;;4.40;2.73;;;;;;;5.94;100.00;100315.67;124163;1105;104309;-79
2024/02/14 06:31:49;;;;;;;7.45;3.15;;;;;;;5.94;100.00;100297.45;124047;1102;104258;-78
2024/02/14 06:34:20;;;;;;;4.60;2.80;;;;;;;5.94;100.00;100289.63;124035;1105;104300;-78
2024/02/14 06:36:51;;;;;;;3.10;2.40;;;;;;;5.94;100.00;100294.84;123908;1105;104674;-78
2024/02/14 06:39:23;;;;;;;5.03;2.57;;;;;;;5.97;100.00;100308.06;123962;1102;104352;-79
2024/02/14 06:41:54;;;;;;;3.95;2.35;;;;;;;5.97;100.00;100308.06;124293;1102;102469;-79
2024/02/14 06:44:25;;;;;;;6.07;2.63;;;;;;;5.94;100.00;100302.66;123801;1102;104261;-78
2024/02/14 06:46:56;;;;;;;5.53;2.60;;;;;;;5.95;100.00;100304.42;124280;1106;102198;-79
2024/02/14 06:49:28;;;;;;;6.23;2.80;;;;;;;5.95;100.00;100309.62;123744;1102;104255;-79
2024/02/14 06:51:59;;;;;;;8.60;3.23;;;;;;;5.97;100.00;100314.95;124017;1102;104389;-79
2024/02/14 06:54:30;;;;;;;4.33;2.83;;;;;;;5.95;100.00;100320.05;123950;1102;104201;-78
2024/02/14 06:57:01;;;;;;;4.77;3.00;;;;;;;5.97;100.00;100326.29;124360;1102;104178;-79
2024/02/14 06:59:34;;;;;;;;;;;;;;;6.00;100.00;100322.92;124051;1105;104381;-79
2024/02/14 07:02:06;;;;;;;6.37;2.80;;;;;;;6.02;100.00;100335.22;124052;1105;102856;-78
2024/02/14 07:04:38;;;;;;;4.97;2.77;;;;;;;5.98;100.00;100328.05;123970;1105;104331;-78
2024/02/14 07:07:21;;;;;;;4.27;2.90;;;;;;;5.98;100.00;100327.17;123741;1105;104317;-78
2024/02/14 07:09:53;;;;;;;4.70;3.13;;;;;;;5.98;100.00;100333.27;123936;1102;104249;-78
2024/02/14 07:12:25;;;;;;;7.83;3.40;;;;;;;5.99;100.00;100328.97;123979;1104;104281;-78
2024/02/14 07:14:57;;;;;;;7.17;3.60;;;;;;;5.98;100.00;100337.59;124004;1102;104355;-78
2024/02/14 07:17:28;;;;;;;5.53;2.70;;;;;;;5.98;100.00;100341.08;123918;1102;104309;-78
2024/02/14 07:20:01;;;;;;;5.07;3.20;;;;;;;5.99;100.00;100339.39;123987;1102;104418;-78
2024/02/14 07:22:41;;;;;;;7.57;3.20;;;;;;;5.98;100.00;100338.47;124058;1105;104286;-78
2024/02/14 07:25:12;;;;;;;3.47;2.63;;;;;;;6.02;100.00;100352.58;123967;1105;104318;-78
2024/02/14 07:27:44;;;;;;;4.45;2.80;;;;;;;6.02;100.00;100350.85;123744;1105;104265;-78
2024/02/14 07:30:16;;;;;;;4.00;2.20;;;;;;;6.04;100.00;100354.42;123722;1102;104207;-78
2024/02/14 07:32:47;;;;;;;5.80;2.85;;;;;;;6.04;100.00;100357.02;124058;1105;102336;-78
2024/02/14 07:35:19;;;;;;;3.60;2.20;;;;;;;6.08;100.00;100361.59;124112;1102;104182;-78
2024/02/14 07:37:50;;;;;;;8.53;2.70;;;;;;;6.16;100.00;100366.31;124146;1105;104233;-79
2024/02/14 07:40:23;;;;;;;4.80;2.10;;;;;;;6.19;100.00;100371.68;124307;1105;104312;-78
2024/02/14 07:42:59;;;;;;;5.87;2.37;;;;;;;6.18;100.00;100375.97;124021;1105;104209;-78
2024/02/14 07:45:30;;;;;;;3.63;2.10;;;;;;;6.22;100.00;100390.08;123727;1105;104294;-78
2024/02/14 07:48:02;;;;;;;2.33;1.67;;;;;;;6.21;100.00;100383.95;124444;1102;104210;-79
2024/02/14 07:50:41;;;;;;;4.20;2.10;;;;;;;6.17;100.00;100386.31;123889;1102;104206;-78
2024/02/14 07:53:14;;;;;;;4.23;2.30;;;;;;;6.16;100.00;100402.78;124975;1104;104236;-79
2024/02/14 07:55:45;;;;;;;7.00;2.50;;;;;;;6.21;100.00;100388.27;124020;1105;104264;-79
2024/02/14 07:58:17;;;;;;;5.97;2.50;;;;;;;6.24;100.00;100398.86;124015;1105;104341;-78
2024/02/14 08:00:49;;;;;;;2.63;1.87;;;;;;;6.29;100.00;100382.65;124207;1105;104175;-78
2024/02/14 08:03:24;;;;;;;2.43;1.90;;;;;;;6.36;100.00;100390.75;124168;1105;104287;-79
2024/02/14 08:06:02;;;;;;;2.70;2.07;;;;;;;6.32;100.00;100396.64;124061;1103;104285;-78
2024/02/14 08:08:34;;;;;;;5.13;2.40;;;;;;;6.30;100.00;100410.48;124093;1105;104255;-78
2024/02/14 08:11:10;;;;;;;3.60;2.40;;;;;;;6.31;100.00;100416.61;124116;1104;104189;-78
2024/02/14 08:13:43;;;;;;;2.30;1.90;;;;;;;6.36;100.00;100404.70;123982;1106;103191;-79
2024/02/14 08:16:14;;;;;;;2.27;1.60;;;;;;;6.37;100.00;100403.86;124208;1105;104290;-79
2024/02/14 08:18:45;;;;;;;4.40;1.70;;;;;;;6.40;100.00;100408.34;124045;1106;104297;-78
2024/02/14 08:21:17;;;;;;;3.17;1.83;;;;;;;6.43;100.00;100413.71;124022;1105;104207;-79
2024/02/14 08:24:05;;;;;;;3.97;1.90;;;;;;;6.42;100.00;100425.86;124034;1105;104315;-80
2024/02/14 08:26:40;;;;;;;3.23;2.00;;;;;;;6.39;100.00;100412.67;123970;1105;104261;-78
2024/02/14 08:29:13;;;;;;;3.57;1.73;;;;;;;6.35;100.00;100422.86;123809;1105;104249;-78
2024/02/14 08:31:49;;;;;;;3.13;2.10;;;;;;;6.33;100.00;100420.17;123799;1105;104293;-77
2024/02/14 08:34:20;;;;;;;2.37;1.73;;;;;;;6.32;100.00;100436.62;123751;1105;104339;-78
2024/02/14 08:36:53;;;;;;;1.87;1.63;;;;;;;6.33;100.00;100438.42;123938;1104;104267;-79
2024/02/14 08:39:26;;;;;;;3.87;2.10;;;;;;;6.34;100.00;100437.58;123927;1105;104213;-79
2024/02/14 08:42:01;;;;;;;4.50;2.52;;;;;;;6.40;100.00;100452.66;123895;1105;104232;-79
2024/02/14 08:44:33;;;;;;;3.93;2.10;;;;;;;6.46;100.00;100448.64;123662;1105;104418;-78
2024/02/14 08:47:07;;;;;;;4.60;2.30;;;;;;;6.49;100.00;100447.91;123787;1105;104853;-78
2024/02/14 08:49:41;;;;;;;6.23;2.23;;;;;;;6.52;100.00;100450.67;123972;1105;104207;-78
2024/02/14 08:52:14;;;;;;;5.70;2.10;;;;;;;6.58;100.00;100465.75;123878;1105;104341;-78
2024/02/14 08:54:56;;;;;;;5.93;2.20;;;;;;;6.58;100.00;100469.24;123981;1105;104743;-79
2024/02/14 08:57:27;;;;;;;6.47;1.90;;;;;;;6.58;100.00;100457.93;124085;1105;104396;-80
2024/02/14 08:59:58;;;;;;;4.87;2.20;;;;;;;6.62;100.00;100465.07;124094;1103;104396;-79
2024/02/14 09:02:30;;;;;;;4.50;1.80;;;;;;;6.65;100.00;100460.02;124161;1102;104268;-79
2024/02/14 09:05:05;;;;;;;2.93;1.90;;;;;;;6.62;100.00;100459.85;124171;1105;102723;-79
2024/02/14 09:07:38;;;;;;;2.53;1.80;;;;;;;6.61;100.00;100466.80;124046;1102;104360;-80
2024/02/14 09:10:12;;;;;;;3.30;1.97;;;;;;;6.61;100.00;100473.73;123986;1105;104342;-80
2024/02/14 09:12:43;;;;;;;2.63;1.77;;;;;;;6.62;100.00;100470.28;124267;1102;104177;-80
2024/02/14 09:15:16;;;;;;;2.23;1.60;;;;;;;6.59;100.00;100459.70;124000;1105;104313;-80
2024/02/14 09:17:48;;;;;;;2.17;1.80;;;;;;;6.52;100.00;100476.75;124533;1105;104190;-80
2024/02/14 09:20:25;;;;;;;4.40;1.50;;;;;;;6.47;100.00;100476.51;124081;1103;104131;-79
2024/02/14 09:23:04;;;;;;;2.70;1.60;;;;;;;6.46;100.00;100469.49;124082;1105;104255;-80
2024/02/14 09:25:36;;;;;;;2.60;1.63;;;;;;;6.48;100.00;100461.75;124144;1103;104265;-80
2024/02/14 09:28:09;;;;;;;2.10;1.70;;;;;;;6.50;100.00;100465.36;124301;1102;102278;-80
2024/02/14 09:30:43;;;;;;;4.13;1.80;;;;;;;6.52;99.97;100473.26;124149;1105;102779;-80
2024/02/14 09:33:19;;;;;;;1.90;1.73;;;;;;;6.49;99.32;100473.98;124316;1105;104242;-80
2024/02/14 09:35:52;;;;;;;2.30;1.70;;;;;;;6.54;100.00;100476.83;124298;1105;102460;-80
2024/02/14 09:38:24;;;;;;;2.33;1.57;;;;;;;6.61;100.00;100473.73;124169;1105;104241;-80
2024/02/14 09:40:59;;;;;;;2.23;1.50;;;;;;;6.66;99.58;100478.34;125914;1105;101457;-78
2024/02/14 09:43:37;;;;;;;4.87;1.50;;;;;;;6.71;99.08;100464.66;126061;1102;111730;-77
2024/02/14 09:46:10;;;;;;;4.23;2.00;;;;;;;6.81;99.30;100472.14;126110;1102;102383;-78
2024/02/14 09:48:46;;;;;;;3.23;2.17;;;;;;;6.87;98.97;100471.53;126142;1102;102683;-78
2024/02/14 09:51:18;;;;;;;6.77;2.60;;;;;;;6.90;98.63;100477.78;126275;1101;102686;-79
2024/02/14 09:53:53;;;;;;;5.27;2.57;;;;;;;6.95;99.00;100478.02;124142;1105;102822;-79
2024/02/14 09:56:27;;;;;;;2.30;1.80;;;;;;;7.04;98.63;100480.20;125218;1105;104188;-79
2024/02/14 09:59:00;;;;;;;3.30;1.80;;;;;;;7.20;98.38;100474.92;126128;1104;101429;-79
2024/02/14 10:01:45;;;;;;;3.80;1.67;;;;;;;7.24;97.57;100486.40;124673;1105;104214;-78
2024/02/14 10:04:22;;;;;;;2.53;1.50;;;;;;;7.31;97.84;100475.45;124150;1102;107761;-79
2024/02/14 10:07:08;;;;;;;2.43;1.77;;;;;;;7.36;97.72;100481.78;124177;1105;104335;-79
2024/02/14 10:09:44;;;;;;;3.60;1.80;;;;;;;7.32;97.79;100479.83;124047;1102;104284;-79
2024/02/14 10:12:20;;;;;;;2.20;1.60;;;;;;;7.21;97.31;100479.30;124702;1106;104168;-79
2024/02/14 10:14:53;;;;;;;2.10;1.83;;;;;;;7.10;96.66;100489.21;124199;1105;104243;-79
2024/02/14 10:17:24;;;;;;;2.00;1.80;;;;;;;6.98;96.60;100488.60;124262;1105;104288;-79
2024/02/14 10:20:00;;;;;;;2.20;1.67;;;;;;;6.88;96.38;100491.59;124046;1105;104182;-80
2024/02/14 10:22:37;;;;;;;2.40;1.80;;;;;;;6.80;96.26;100492.09;125078;1105;104516;-79
2024/02/14 10:25:10;;;;;;;2.55;1.90;;;;;;;6.70;96.65;100500.28;124260;1102;103498;-79
2024/02/14 10:27:42;;;;;;;2.87;1.77;;;;;;;6.61;96.40;100505.02;124193;1103;104248;-80
2024/02/14 10:30:23;;;;;;;2.40;1.90;;;;;;;6.53;96.65;100496.80;123869;1102;104399;-80
2024/02/14 10:33:00;;;;;;;2.57;1.63;;;;;;;6.46;96.63;100508.59;124815;1102;104251;-80
2024/02/14 10:35:36;;;;;;;4.67;1.93;;;;;;;6.44;96.70;100512.84;124060;1103;104313;-79
2024/02/14 10:38:09;;;;;;;2.90;1.80;;;;;;;6.41;96.60;100525.72;124067;1103;104188;-79
2024/02/14 10:40:43;;;;;;;4.20;1.60;;;;;;;6.39;96.08;100506.50;124020;1104;104307;-80
2024/02/14 10:43:20;;;;;;;2.12;1.80;;;;;;;6.35;96.16;100512.36;125612;1105;102829;-80
2024/02/14 10:45:53;;;;;;;1.60;1.50;;;;;;;6.35;96.25;100533.20;124912;1102;104175;-80
2024/02/14 10:48:27;;;;;;;3.40;1.43;;;;;;;6.36;96.38;100524.59;125028;1106;104264;-80
2024/02/14 10:51:03;;;;;;;2.85;1.98;;;;;;;6.35;96.01;100534.93;124920;1102;102334;-80
2024/02/14 10:53:35;;;;;;;1.60;1.50;;;;;;;6.33;96.21;100534.84;124199;1105;104301;-80
2024/02/14 10:56:09;;;;;;;2.50;1.53;;;;;;;6.32;96.34;100527.83;125955;1102;101980;-79
2024/02/14 10:58:42;;;;;;;4.77;2.17;;;;;;;6.29;96.19;100528.59;126060;1103;102598;-80
2024/02/14 11:01:16;;;;;;;1.87;1.30;;;;;;;6.29;95.72;100527.67;126162;1102;101821;-80
2024/02/14 11:03:47;;;;;;;3.08;1.62;;;;;;;6.26;96.09;100530.11;124570;1102;102158;-80
2024/02/14 11:06:22;;;;;;;2.97;1.50;;;;;;;6.28;95.51;100541.53;124216;1105;104437;-80
2024/02/14 11:09:10;;;;;;;2.53;1.97;;;;;;;6.28;96.06;100544.14;124103;1105;104434;-79
2024/02/14 11:11:48;;;;;;;3.80;2.33;;;;;;;6.29;95.78;100525.98;125464;1103;104201;-80
2024/02/14 11:14:30;;;;;;;7.07;1.90;;;;;;;6.32;95.45;100547.80;124666;1103;104219;-80
2024/02/14 11:17:01;;;;;;;3.27;1.60;;;;;;;6.32;95.34;100553.89;124211;1102;104216;-80
2024/02/14 11:19:36;;;;;;;2.73;1.60;;;;;;;6.33;94.96;100544.36;124695;1102;104182;-80
2024/02/14 11:22:19;;;;;;;3.17;1.70;;;;;;;6.30;95.13;100550.32;124571;1102;104176;-80
2024/02/14 11:24:56;;;;;;;5.13;1.80;;;;;;;6.31;95.49;100541.70;126006;1105;102205;-80
2024/02/14 11:27:29;;;;;;;5.37;2.10;;;;;;;6.37;95.62;100552.42;125849;1105;102849;-80
2024/02/14 11:30:27;;;;;;;2.93;1.40;;;;;;;6.39;94.98;100550.81;125873;1105;102321;-80
2024/02/14 11:33:30;;;;;;;2.60;1.80;;;;;;;6.36;94.46;100547.12;125740;1105;102338;-80
2024/02/14 11:36:14;;;;;;;5.93;2.27;;;;;;;6.40;94.90;100544.77;124460;1105;108306;-80
2024/02/14 11:38:49;;;;;;;3.30;1.93;;;;;;;6.42;94.43;100552.66;124345;1103;104284;-79